sensor_id;sensor_type;location;lat;lon;timestamp;P1;durP1;ratioP1;P2;durP2;ratioP2
74269;SDS011;62754;48.252;11.654;2023-09-12T00:01:50;18.40;;;12.95;;
74269;SDS011;62754;48.252;11.654;2023-09-12T00:04:18;19.30;;;13.43;;
74269;SDS011;62754;48.252;11.654;2023-09-12T00:06:46;16.60;;;12.48;;
74269;SDS011;62754;48.252;11.654;2023-09-12T00:09:12;18.48;;;13.27;;
74269;SDS011;62754;48.252;11.654;2023-09-12T00:11:40;16.35;;;13.10;;
74269;SDS011;62754;48.252;11.654;2023-09-12T00:14:05;16.45;;;13.25;;
74269;SDS011;62754;48.252;11.654;2023-09-12T00:16:34;19.00;;;13.10;;
74269;SDS011;62754;48.252;11.654;2023-09-12T00:18:59;16.50;;;13.43;;
74269;SDS011;62754;48.252;11.654;2023-09-12T00:21:25;15.48;;;12.60;;
74269;SDS011;62754;48.252;11.654;2023-09-12T00:23:53;16.58;;;12.32;;
74269;SDS011;62754;48.252;11.654;2023-09-12T00:26:19;15.95;;;12.98;;
74269;SDS011;62754;48.252;11.654;2023-09-12T00:28:47;13.82;;;12.27;;
74269;SDS011;62754;48.252;11.654;2023-09-12T00:31:13;17.73;;;13.43;;
74269;SDS011;62754;48.252;11.654;2023-09-12T00:33:41;18.67;;;13.55;;
74269;SDS011;62754;48.252;11.654;2023-09-12T00:36:07;17.80;;;14.38;;
74269;SDS011;62754;48.252;11.654;2023-09-12T00:38:33;23.95;;;15.15;;
74269;SDS011;62754;48.252;11.654;2023-09-12T00:41:01;18.50;;;13.85;;
74269;SDS011;62754;48.252;11.654;2023-09-12T00:43:31;14.95;;;11.98;;
74269;SDS011;62754;48.252;11.654;2023-09-12T00:46:00;15.10;;;12.55;;
74269;SDS011;62754;48.252;11.654;2023-09-12T00:48:25;17.33;;;13.15;;
74269;SDS011;62754;48.252;11.654;2023-09-12T00:50:54;14.63;;;12.15;;
74269;SDS011;62754;48.252;11.654;2023-09-12T00:53:21;13.70;;;11.57;;
74269;SDS011;62754;48.252;11.654;2023-09-12T00:55:50;17.83;;;11.98;;
74269;SDS011;62754;48.252;11.654;2023-09-12T00:58:23;19.45;;;12.50;;
74269;SDS011;62754;48.252;11.654;2023-09-12T01:00:52;15.77;;;11.73;;
74269;SDS011;62754;48.252;11.654;2023-09-12T01:03:18;14.98;;;12.48;;
74269;SDS011;62754;48.252;11.654;2023-09-12T01:05:47;15.07;;;11.80;;
74269;SDS011;62754;48.252;11.654;2023-09-12T01:08:16;15.80;;;12.10;;
74269;SDS011;62754;48.252;11.654;2023-09-12T01:10:42;14.05;;;11.60;;
74269;SDS011;62754;48.252;11.654;2023-09-12T01:13:08;14.57;;;11.43;;
74269;SDS011;62754;48.252;11.654;2023-09-12T01:15:34;14.63;;;11.65;;
74269;SDS011;62754;48.252;11.654;2023-09-12T01:18:02;13.00;;;10.77;;
74269;SDS011;62754;48.252;11.654;2023-09-12T01:20:29;15.13;;;11.52;;
74269;SDS011;62754;48.252;11.654;2023-09-12T01:28:40;12.88;;;11.07;;
74269;SDS011;62754;48.252;11.654;2023-09-12T01:31:10;14.40;;;11.85;;
74269;SDS011;62754;48.252;11.654;2023-09-12T01:33:37;15.10;;;11.52;;
74269;SDS011;62754;48.252;11.654;2023-09-12T01:36:04;17.10;;;12.65;;
74269;SDS011;62754;48.252;11.654;2023-09-12T01:38:33;16.90;;;13.00;;
74269;SDS011;62754;48.252;11.654;2023-09-12T01:41:02;20.83;;;14.00;;
74269;SDS011;62754;48.252;11.654;2023-09-12T01:43:31;15.40;;;12.50;;
74269;SDS011;62754;48.252;11.654;2023-09-12T01:45:58;16.30;;;12.70;;
74269;SDS011;62754;48.252;11.654;2023-09-12T01:48:30;16.45;;;13.05;;
74269;SDS011;62754;48.252;11.654;2023-09-12T01:50:59;15.20;;;12.18;;
74269;SDS011;62754;48.252;11.654;2023-09-12T01:53:27;14.25;;;12.05;;
74269;SDS011;62754;48.252;11.654;2023-09-12T01:55:54;14.65;;;12.85;;
74269;SDS011;62754;48.252;11.654;2023-09-12T01:58:29;15.55;;;11.88;;
74269;SDS011;62754;48.252;11.654;2023-09-12T02:00:59;15.68;;;11.82;;
74269;SDS011;62754;48.252;11.654;2023-09-12T02:03:27;13.57;;;12.13;;
74269;SDS011;62754;48.252;11.654;2023-09-12T02:05:52;13.32;;;11.30;;
74269;SDS011;62754;48.252;11.654;2023-09-12T02:08:20;13.02;;;11.57;;
74269;SDS011;62754;48.252;11.654;2023-09-12T02:10:48;15.27;;;12.35;;
74269;SDS011;62754;48.252;11.654;2023-09-12T02:13:14;14.73;;;11.95;;
74269;SDS011;62754;48.252;11.654;2023-09-12T02:15:42;15.50;;;13.10;;
74269;SDS011;62754;48.252;11.654;2023-09-12T02:18:11;15.70;;;12.25;;
74269;SDS011;62754;48.252;11.654;2023-09-12T02:20:40;14.13;;;12.43;;
74269;SDS011;62754;48.252;11.654;2023-09-12T02:23:09;14.25;;;12.35;;
74269;SDS011;62754;48.252;11.654;2023-09-12T02:25:34;15.38;;;12.00;;
74269;SDS011;62754;48.252;11.654;2023-09-12T02:28:00;15.43;;;12.02;;
74269;SDS011;62754;48.252;11.654;2023-09-12T02:30:30;16.70;;;12.02;;
74269;SDS011;62754;48.252;11.654;2023-09-12T02:32:56;15.63;;;12.75;;
74269;SDS011;62754;48.252;11.654;2023-09-12T02:35:22;15.23;;;12.07;;
74269;SDS011;62754;48.252;11.654;2023-09-12T02:37:47;15.75;;;12.27;;
74269;SDS011;62754;48.252;11.654;2023-09-12T02:40:13;15.18;;;12.27;;
74269;SDS011;62754;48.252;11.654;2023-09-12T02:42:39;17.08;;;13.88;;
74269;SDS011;62754;48.252;11.654;2023-09-12T02:45:05;17.65;;;13.35;;
74269;SDS011;62754;48.252;11.654;2023-09-12T02:47:33;14.48;;;12.07;;
74269;SDS011;62754;48.252;11.654;2023-09-12T02:49:59;18.55;;;13.02;;
74269;SDS011;62754;48.252;11.654;2023-09-12T02:52:25;17.70;;;13.27;;
74269;SDS011;62754;48.252;11.654;2023-09-12T02:54:50;16.63;;;12.50;;
74269;SDS011;62754;48.252;11.654;2023-09-12T02:57:16;16.40;;;13.15;;
74269;SDS011;62754;48.252;11.654;2023-09-12T02:59:44;18.38;;;13.77;;
74269;SDS011;62754;48.252;11.654;2023-09-12T03:02:12;14.90;;;12.98;;
74269;SDS011;62754;48.252;11.654;2023-09-12T03:04:40;17.73;;;12.70;;
74269;SDS011;62754;48.252;11.654;2023-09-12T03:07:06;15.93;;;12.73;;
74269;SDS011;62754;48.252;11.654;2023-09-12T03:09:32;16.13;;;13.45;;
74269;SDS011;62754;48.252;11.654;2023-09-12T03:11:57;15.60;;;12.35;;
74269;SDS011;62754;48.252;11.654;2023-09-12T03:14:27;14.57;;;12.02;;
74269;SDS011;62754;48.252;11.654;2023-09-12T03:16:55;18.20;;;12.32;;
74269;SDS011;62754;48.252;11.654;2023-09-12T03:19:23;15.32;;;11.55;;
74269;SDS011;62754;48.252;11.654;2023-09-12T03:21:49;17.65;;;12.88;;
74269;SDS011;62754;48.252;11.654;2023-09-12T03:24:14;16.00;;;13.20;;
74269;SDS011;62754;48.252;11.654;2023-09-12T03:26:43;16.48;;;12.35;;
74269;SDS011;62754;48.252;11.654;2023-09-12T03:29:09;15.50;;;12.68;;
74269;SDS011;62754;48.252;11.654;2023-09-12T03:31:37;14.93;;;11.43;;
74269;SDS011;62754;48.252;11.654;2023-09-12T03:34:05;14.73;;;12.18;;
74269;SDS011;62754;48.252;11.654;2023-09-12T03:36:31;13.52;;;11.05;;
74269;SDS011;62754;48.252;11.654;2023-09-12T03:38:57;14.18;;;11.43;;
74269;SDS011;62754;48.252;11.654;2023-09-12T03:41:22;13.73;;;11.57;;
74269;SDS011;62754;48.252;11.654;2023-09-12T03:43:48;16.50;;;12.98;;
74269;SDS011;62754;48.252;11.654;2023-09-12T03:46:16;15.10;;;12.10;;
74269;SDS011;62754;48.252;11.654;2023-09-12T03:48:42;15.68;;;12.55;;
74269;SDS011;62754;48.252;11.654;2023-09-12T03:51:07;13.43;;;11.43;;
74269;SDS011;62754;48.252;11.654;2023-09-12T03:53:33;14.68;;;12.25;;
74269;SDS011;62754;48.252;11.654;2023-09-12T03:55:59;16.67;;;11.60;;
74269;SDS011;62754;48.252;11.654;2023-09-12T03:58:27;15.93;;;12.23;;
74269;SDS011;62754;48.252;11.654;2023-09-12T04:00:53;15.10;;;12.45;;
74269;SDS011;62754;48.252;11.654;2023-09-12T04:03:19;16.23;;;12.50;;
74269;SDS011;62754;48.252;11.654;2023-09-12T04:05:45;15.43;;;11.98;;
74269;SDS011;62754;48.252;11.654;2023-09-12T04:08:17;15.32;;;12.88;;
74269;SDS011;62754;48.252;11.654;2023-09-12T04:10:46;13.27;;;11.38;;
74269;SDS011;62754;48.252;11.654;2023-09-12T04:13:16;14.57;;;12.30;;
74269;SDS011;62754;48.252;11.654;2023-09-12T04:15:44;14.63;;;11.93;;
74269;SDS011;62754;48.252;11.654;2023-09-12T04:18:13;14.63;;;12.15;;
74269;SDS011;62754;48.252;11.654;2023-09-12T04:20:39;15.95;;;11.82;;
74269;SDS011;62754;48.252;11.654;2023-09-12T04:23:07;13.95;;;11.50;;
74269;SDS011;62754;48.252;11.654;2023-09-12T04:25:35;16.15;;;11.13;;
74269;SDS011;62754;48.252;11.654;2023-09-12T04:28:06;14.15;;;11.73;;
74269;SDS011;62754;48.252;11.654;2023-09-12T04:30:35;13.60;;;11.65;;
74269;SDS011;62754;48.252;11.654;2023-09-12T04:33:00;15.45;;;12.82;;
74269;SDS011;62754;48.252;11.654;2023-09-12T04:35:26;20.13;;;12.95;;
74269;SDS011;62754;48.252;11.654;2023-09-12T04:37:56;14.40;;;11.80;;
74269;SDS011;62754;48.252;11.654;2023-09-12T04:40:22;16.45;;;11.05;;
74269;SDS011;62754;48.252;11.654;2023-09-12T04:42:51;14.50;;;11.15;;
74269;SDS011;62754;48.252;11.654;2023-09-12T04:45:19;16.88;;;11.65;;
74269;SDS011;62754;48.252;11.654;2023-09-12T04:47:47;13.45;;;10.93;;
74269;SDS011;62754;48.252;11.654;2023-09-12T04:50:12;14.40;;;11.00;;
74269;SDS011;62754;48.252;11.654;2023-09-12T04:52:40;12.63;;;10.18;;
74269;SDS011;62754;48.252;11.654;2023-09-12T04:55:10;14.00;;;10.38;;
74269;SDS011;62754;48.252;11.654;2023-09-12T04:57:36;13.38;;;10.77;;
74269;SDS011;62754;48.252;11.654;2023-09-12T05:00:02;14.48;;;11.13;;
74269;SDS011;62754;48.252;11.654;2023-09-12T05:02:33;13.10;;;11.48;;
74269;SDS011;62754;48.252;11.654;2023-09-12T05:04:59;14.32;;;11.35;;
74269;SDS011;62754;48.252;11.654;2023-09-12T05:07:26;13.88;;;11.18;;
74269;SDS011;62754;48.252;11.654;2023-09-12T05:09:55;13.10;;;10.40;;
74269;SDS011;62754;48.252;11.654;2023-09-12T05:12:23;12.82;;;11.43;;
74269;SDS011;62754;48.252;11.654;2023-09-12T05:14:48;13.85;;;11.20;;
74269;SDS011;62754;48.252;11.654;2023-09-12T05:17:16;14.02;;;10.30;;
74269;SDS011;62754;48.252;11.654;2023-09-12T05:19:47;15.43;;;11.20;;
74269;SDS011;62754;48.252;11.654;2023-09-12T05:22:15;14.00;;;11.35;;
74269;SDS011;62754;48.252;11.654;2023-09-12T05:24:43;13.77;;;11.20;;
74269;SDS011;62754;48.252;11.654;2023-09-12T05:27:08;12.98;;;10.38;;
74269;SDS011;62754;48.252;11.654;2023-09-12T05:29:37;14.93;;;12.77;;
74269;SDS011;62754;48.252;11.654;2023-09-12T05:32:05;13.65;;;11.32;;
74269;SDS011;62754;48.252;11.654;2023-09-12T05:34:31;16.35;;;11.70;;
74269;SDS011;62754;48.252;11.654;2023-09-12T05:36:57;13.77;;;11.57;;
74269;SDS011;62754;48.252;11.654;2023-09-12T05:39:22;16.17;;;11.13;;
74269;SDS011;62754;48.252;11.654;2023-09-12T05:41:48;15.40;;;11.30;;
74269;SDS011;62754;48.252;11.654;2023-09-12T05:44:14;16.88;;;11.68;;
74269;SDS011;62754;48.252;11.654;2023-09-12T05:46:40;14.70;;;11.15;;
74269;SDS011;62754;48.252;11.654;2023-09-12T05:49:06;13.90;;;11.73;;
74269;SDS011;62754;48.252;11.654;2023-09-12T05:51:34;14.77;;;10.52;;
74269;SDS011;62754;48.252;11.654;2023-09-12T05:54:00;16.55;;;11.55;;
74269;SDS011;62754;48.252;11.654;2023-09-12T05:56:25;13.90;;;10.70;;
74269;SDS011;62754;48.252;11.654;2023-09-12T05:58:51;12.75;;;10.73;;
74269;SDS011;62754;48.252;11.654;2023-09-12T06:01:17;16.00;;;10.18;;
74269;SDS011;62754;48.252;11.654;2023-09-12T06:03:47;13.13;;;10.15;;
74269;SDS011;62754;48.252;11.654;2023-09-12T06:06:13;14.02;;;10.68;;
74269;SDS011;62754;48.252;11.654;2023-09-12T06:11:07;15.25;;;10.30;;
74269;SDS011;62754;48.252;11.654;2023-09-12T06:13:33;13.20;;;10.35;;
74269;SDS011;62754;48.252;11.654;2023-09-12T06:15:59;13.52;;;11.23;;
74269;SDS011;62754;48.252;11.654;2023-09-12T06:18:27;16.30;;;10.80;;
74269;SDS011;62754;48.252;11.654;2023-09-12T06:20:52;13.63;;;11.05;;
74269;SDS011;62754;48.252;11.654;2023-09-12T06:23:21;14.35;;;10.98;;
74269;SDS011;62754;48.252;11.654;2023-09-12T06:25:49;12.85;;;10.48;;
74269;SDS011;62754;48.252;11.654;2023-09-12T06:28:24;14.73;;;10.93;;
74269;SDS011;62754;48.252;11.654;2023-09-12T06:30:58;22.75;;;11.52;;
74269;SDS011;62754;48.252;11.654;2023-09-12T06:33:26;12.93;;;10.75;;
74269;SDS011;62754;48.252;11.654;2023-09-12T06:35:54;13.90;;;10.35;;
74269;SDS011;62754;48.252;11.654;2023-09-12T06:38:23;15.88;;;11.15;;
74269;SDS011;62754;48.252;11.654;2023-09-12T06:40:48;12.43;;;10.50;;
74269;SDS011;62754;48.252;11.654;2023-09-12T06:43:14;12.57;;;10.48;;
74269;SDS011;62754;48.252;11.654;2023-09-12T06:45:45;13.35;;;10.68;;
74269;SDS011;62754;48.252;11.654;2023-09-12T06:48:10;15.93;;;11.77;;
74269;SDS011;62754;48.252;11.654;2023-09-12T06:50:38;16.75;;;11.63;;
74269;SDS011;62754;48.252;11.654;2023-09-12T06:53:06;13.88;;;10.90;;
74269;SDS011;62754;48.252;11.654;2023-09-12T06:55:37;13.40;;;10.95;;
74269;SDS011;62754;48.252;11.654;2023-09-12T06:58:05;14.93;;;10.70;;
74269;SDS011;62754;48.252;11.654;2023-09-12T07:00:33;13.75;;;10.00;;
74269;SDS011;62754;48.252;11.654;2023-09-12T07:03:01;14.20;;;10.27;;
74269;SDS011;62754;48.252;11.654;2023-09-12T07:05:29;15.43;;;9.88;;
74269;SDS011;62754;48.252;11.654;2023-09-12T07:07:57;15.35;;;11.20;;
74269;SDS011;62754;48.252;11.654;2023-09-12T07:10:27;14.90;;;10.85;;
74269;SDS011;62754;48.252;11.654;2023-09-12T07:12:56;12.70;;;9.63;;
74269;SDS011;62754;48.252;11.654;2023-09-12T07:15:25;14.23;;;10.00;;
74269;SDS011;62754;48.252;11.654;2023-09-12T07:17:53;13.18;;;10.90;;
74269;SDS011;62754;48.252;11.654;2023-09-12T07:20:19;14.13;;;11.02;;
74269;SDS011;62754;48.252;11.654;2023-09-12T07:22:45;16.02;;;11.60;;
74269;SDS011;62754;48.252;11.654;2023-09-12T07:25:11;17.10;;;11.88;;
74269;SDS011;62754;48.252;11.654;2023-09-12T07:27:39;15.75;;;11.82;;
74269;SDS011;62754;48.252;11.654;2023-09-12T07:30:07;17.80;;;12.27;;
74269;SDS011;62754;48.252;11.654;2023-09-12T07:35:01;16.30;;;12.00;;
74269;SDS011;62754;48.252;11.654;2023-09-12T07:37:29;20.05;;;11.65;;
74269;SDS011;62754;48.252;11.654;2023-09-12T07:39:55;17.60;;;11.70;;
74269;SDS011;62754;48.252;11.654;2023-09-12T07:42:24;20.50;;;11.95;;
74269;SDS011;62754;48.252;11.654;2023-09-12T07:44:52;15.48;;;10.80;;
74269;SDS011;62754;48.252;11.654;2023-09-12T07:47:18;18.50;;;11.82;;
74269;SDS011;62754;48.252;11.654;2023-09-12T07:49:44;19.60;;;10.90;;
74269;SDS011;62754;48.252;11.654;2023-09-12T07:52:10;18.35;;;10.85;;
74269;SDS011;62754;48.252;11.654;2023-09-12T07:54:40;16.30;;;10.90;;
74269;SDS011;62754;48.252;11.654;2023-09-12T07:57:05;19.38;;;11.32;;
74269;SDS011;62754;48.252;11.654;2023-09-12T07:59:31;15.85;;;11.50;;
74269;SDS011;62754;48.252;11.654;2023-09-12T08:01:59;17.23;;;11.45;;
74269;SDS011;62754;48.252;11.654;2023-09-12T08:04:27;12.90;;;9.60;;
74269;SDS011;62754;48.252;11.654;2023-09-12T08:06:53;12.60;;;10.07;;
74269;SDS011;62754;48.252;11.654;2023-09-12T08:09:18;11.40;;;9.18;;
74269;SDS011;62754;48.252;11.654;2023-09-12T08:11:44;13.25;;;9.07;;
74269;SDS011;62754;48.252;11.654;2023-09-12T08:14:10;12.75;;;9.20;;
74269;SDS011;62754;48.252;11.654;2023-09-12T08:16:36;12.10;;;9.20;;
74269;SDS011;62754;48.252;11.654;2023-09-12T08:19:04;13.65;;;9.90;;
74269;SDS011;62754;48.252;11.654;2023-09-12T08:21:30;10.18;;;9.10;;
74269;SDS011;62754;48.252;11.654;2023-09-12T08:24:00;13.30;;;9.52;;
74269;SDS011;62754;48.252;11.654;2023-09-12T08:26:31;16.58;;;10.20;;
74269;SDS011;62754;48.252;11.654;2023-09-12T08:28:56;17.50;;;10.70;;
74269;SDS011;62754;48.252;11.654;2023-09-12T08:33:50;15.23;;;9.98;;
74269;SDS011;62754;48.252;11.654;2023-09-12T08:36:21;15.40;;;10.05;;
74269;SDS011;62754;48.252;11.654;2023-09-12T08:38:46;14.02;;;9.75;;
74269;SDS011;62754;48.252;11.654;2023-09-12T08:43:42;12.07;;;8.65;;
74269;SDS011;62754;48.252;11.654;2023-09-12T08:46:11;13.05;;;9.15;;
74269;SDS011;62754;48.252;11.654;2023-09-12T08:48:40;13.18;;;9.55;;
74269;SDS011;62754;48.252;11.654;2023-09-12T08:51:08;14.13;;;9.80;;
74269;SDS011;62754;48.252;11.654;2023-09-12T08:53:37;14.23;;;8.68;;
74269;SDS011;62754;48.252;11.654;2023-09-12T08:58:31;14.07;;;9.40;;
74269;SDS011;62754;48.252;11.654;2023-09-12T09:01:00;12.05;;;9.02;;
74269;SDS011;62754;48.252;11.654;2023-09-12T09:03:28;11.73;;;9.75;;
74269;SDS011;62754;48.252;11.654;2023-09-12T09:05:57;16.52;;;8.77;;
74269;SDS011;62754;48.252;11.654;2023-09-12T09:08:26;11.13;;;8.48;;
74269;SDS011;62754;48.252;11.654;2023-09-12T09:10:59;11.70;;;8.93;;
74269;SDS011;62754;48.252;11.654;2023-09-12T09:13:27;12.63;;;8.60;;
74269;SDS011;62754;48.252;11.654;2023-09-12T09:21:18;14.45;;;8.68;;
74269;SDS011;62754;48.252;11.654;2023-09-12T09:23:47;11.65;;;8.60;;
74269;SDS011;62754;48.252;11.654;2023-09-12T09:28:38;13.20;;;8.13;;
74269;SDS011;62754;48.252;11.654;2023-09-12T09:33:37;12.05;;;8.00;;
74269;SDS011;62754;48.252;11.654;2023-09-12T09:36:06;9.23;;;7.00;;
74269;SDS011;62754;48.252;11.654;2023-09-12T09:38:37;12.45;;;7.68;;
74269;SDS011;62754;48.252;11.654;2023-09-12T09:41:05;9.07;;;7.13;;
74269;SDS011;62754;48.252;11.654;2023-09-12T09:43:31;8.50;;;6.88;;
74269;SDS011;62754;48.252;11.654;2023-09-12T09:46:00;10.95;;;7.55;;
74269;SDS011;62754;48.252;11.654;2023-09-12T09:50:54;11.45;;;7.35;;
74269;SDS011;62754;48.252;11.654;2023-09-12T09:53:28;9.90;;;6.97;;
74269;SDS011;62754;48.252;11.654;2023-09-12T09:58:34;11.40;;;7.55;;
74269;SDS011;62754;48.252;11.654;2023-09-12T10:01:07;9.23;;;7.53;;
74269;SDS011;62754;48.252;11.654;2023-09-12T10:03:37;10.00;;;7.45;;
74269;SDS011;62754;48.252;11.654;2023-09-12T10:06:05;12.25;;;7.38;;
74269;SDS011;62754;48.252;11.654;2023-09-12T10:08:35;8.73;;;7.00;;
74269;SDS011;62754;48.252;11.654;2023-09-12T10:11:03;7.88;;;6.97;;
74269;SDS011;62754;48.252;11.654;2023-09-12T10:13:34;10.02;;;6.75;;
74269;SDS011;62754;48.252;11.654;2023-09-12T10:16:07;11.10;;;7.45;;
74269;SDS011;62754;48.252;11.654;2023-09-12T10:18:42;8.15;;;6.47;;
74269;SDS011;62754;48.252;11.654;2023-09-12T10:21:15;8.82;;;6.50;;
74269;SDS011;62754;48.252;11.654;2023-09-12T10:23:55;7.55;;;6.43;;
74269;SDS011;62754;48.252;11.654;2023-09-12T10:26:23;8.93;;;6.88;;
74269;SDS011;62754;48.252;11.654;2023-09-12T10:28:54;8.68;;;6.75;;
74269;SDS011;62754;48.252;11.654;2023-09-12T10:31:20;8.65;;;6.85;;
74269;SDS011;62754;48.252;11.654;2023-09-12T10:33:49;9.98;;;6.45;;
74269;SDS011;62754;48.252;11.654;2023-09-12T10:36:21;8.63;;;6.80;;
74269;SDS011;62754;48.252;11.654;2023-09-12T10:38:48;8.57;;;6.60;;
74269;SDS011;62754;48.252;11.654;2023-09-12T10:41:16;9.85;;;6.70;;
74269;SDS011;62754;48.252;11.654;2023-09-12T10:43:44;9.50;;;6.32;;
74269;SDS011;62754;48.252;11.654;2023-09-12T10:46:15;8.90;;;5.95;;
74269;SDS011;62754;48.252;11.654;2023-09-12T10:48:41;9.50;;;6.25;;
74269;SDS011;62754;48.252;11.654;2023-09-12T10:51:11;8.25;;;6.25;;
74269;SDS011;62754;48.252;11.654;2023-09-12T10:53:38;9.30;;;6.10;;
74269;SDS011;62754;48.252;11.654;2023-09-12T11:01:29;8.27;;;6.15;;
74269;SDS011;62754;48.252;11.654;2023-09-12T11:03:58;8.55;;;6.07;;
74269;SDS011;62754;48.252;11.654;2023-09-12T11:06:32;7.03;;;5.80;;
74269;SDS011;62754;48.252;11.654;2023-09-12T11:11:49;8.63;;;5.95;;
74269;SDS011;62754;48.252;11.654;2023-09-12T11:19:42;7.38;;;6.18;;
74269;SDS011;62754;48.252;11.654;2023-09-12T11:24:50;10.00;;;6.20;;
74269;SDS011;62754;48.252;11.654;2023-09-12T11:27:16;8.52;;;6.20;;
74269;SDS011;62754;48.252;11.654;2023-09-12T11:29:41;7.75;;;5.75;;
74269;SDS011;62754;48.252;11.654;2023-09-12T11:32:24;8.90;;;5.88;;
74269;SDS011;62754;48.252;11.654;2023-09-12T11:34:51;9.60;;;6.40;;
74269;SDS011;62754;48.252;11.654;2023-09-12T11:37:26;11.85;;;6.15;;
74269;SDS011;62754;48.252;11.654;2023-09-12T11:39:55;7.75;;;6.10;;
74269;SDS011;62754;48.252;11.654;2023-09-12T11:42:21;7.68;;;5.72;;
74269;SDS011;62754;48.252;11.654;2023-09-12T11:44:49;6.85;;;5.55;;
74269;SDS011;62754;48.252;11.654;2023-09-12T11:47:16;7.32;;;6.38;;
74269;SDS011;62754;48.252;11.654;2023-09-12T11:49:46;8.40;;;6.18;;
74269;SDS011;62754;48.252;11.654;2023-09-12T11:52:12;7.22;;;6.00;;
74269;SDS011;62754;48.252;11.654;2023-09-12T11:54:40;7.75;;;6.20;;
74269;SDS011;62754;48.252;11.654;2023-09-12T11:57:07;8.73;;;6.00;;
74269;SDS011;62754;48.252;11.654;2023-09-12T11:59:37;6.97;;;5.90;;
74269;SDS011;62754;48.252;11.654;2023-09-12T12:02:07;7.07;;;5.85;;
74269;SDS011;62754;48.252;11.654;2023-09-12T12:04:35;6.80;;;5.90;;
74269;SDS011;62754;48.252;11.654;2023-09-12T12:07:02;7.82;;;6.25;;
74269;SDS011;62754;48.252;11.654;2023-09-12T12:09:33;6.72;;;6.03;;
74269;SDS011;62754;48.252;11.654;2023-09-12T12:12:09;8.70;;;5.97;;
74269;SDS011;62754;48.252;11.654;2023-09-12T12:14:39;10.02;;;6.15;;
74269;SDS011;62754;48.252;11.654;2023-09-12T12:17:07;8.80;;;6.22;;
74269;SDS011;62754;48.252;11.654;2023-09-12T12:19:36;7.22;;;6.40;;
74269;SDS011;62754;48.252;11.654;2023-09-12T12:22:04;6.45;;;5.85;;
74269;SDS011;62754;48.252;11.654;2023-09-12T12:24:36;7.43;;;6.10;;
74269;SDS011;62754;48.252;11.654;2023-09-12T12:27:11;7.40;;;6.00;;
74269;SDS011;62754;48.252;11.654;2023-09-12T12:29:37;9.13;;;6.05;;
74269;SDS011;62754;48.252;11.654;2023-09-12T12:32:06;9.75;;;6.78;;
74269;SDS011;62754;48.252;11.654;2023-09-12T12:34:34;7.30;;;5.53;;
74269;SDS011;62754;48.252;11.654;2023-09-12T12:37:02;9.50;;;6.55;;
74269;SDS011;62754;48.252;11.654;2023-09-12T12:39:33;7.32;;;5.75;;
74269;SDS011;62754;48.252;11.654;2023-09-12T12:42:01;8.65;;;6.07;;
74269;SDS011;62754;48.252;11.654;2023-09-12T12:44:32;6.75;;;5.72;;
74269;SDS011;62754;48.252;11.654;2023-09-12T12:47:03;7.43;;;5.78;;
74269;SDS011;62754;48.252;11.654;2023-09-12T12:49:35;6.20;;;5.60;;
74269;SDS011;62754;48.252;11.654;2023-09-12T12:52:04;8.95;;;5.65;;
74269;SDS011;62754;48.252;11.654;2023-09-12T12:54:35;8.65;;;5.70;;
74269;SDS011;62754;48.252;11.654;2023-09-12T12:57:04;8.55;;;6.35;;
74269;SDS011;62754;48.252;11.654;2023-09-12T12:59:34;7.05;;;5.60;;
74269;SDS011;62754;48.252;11.654;2023-09-12T13:02:05;6.50;;;5.72;;
74269;SDS011;62754;48.252;11.654;2023-09-12T13:04:36;7.45;;;5.60;;
74269;SDS011;62754;48.252;11.654;2023-09-12T13:07:03;8.77;;;5.90;;
74269;SDS011;62754;48.252;11.654;2023-09-12T13:09:34;6.93;;;5.47;;
74269;SDS011;62754;48.252;11.654;2023-09-12T13:11:59;8.70;;;5.95;;
74269;SDS011;62754;48.252;11.654;2023-09-12T13:14:28;7.50;;;5.90;;
74269;SDS011;62754;48.252;11.654;2023-09-12T13:16:59;8.85;;;5.75;;
74269;SDS011;62754;48.252;11.654;2023-09-12T13:19:25;8.65;;;5.82;;
74269;SDS011;62754;48.252;11.654;2023-09-12T13:21:51;6.85;;;5.78;;
74269;SDS011;62754;48.252;11.654;2023-09-12T13:24:20;7.28;;;5.85;;
74269;SDS011;62754;48.252;11.654;2023-09-12T13:26:51;8.05;;;5.68;;
74269;SDS011;62754;48.252;11.654;2023-09-12T13:29:17;7.13;;;5.32;;
74269;SDS011;62754;48.252;11.654;2023-09-12T13:31:43;8.73;;;5.47;;
74269;SDS011;62754;48.252;11.654;2023-09-12T13:34:08;7.78;;;5.57;;
74269;SDS011;62754;48.252;11.654;2023-09-12T13:36:34;6.38;;;5.57;;
74269;SDS011;62754;48.252;11.654;2023-09-12T13:39:02;6.13;;;5.20;;
74269;SDS011;62754;48.252;11.654;2023-09-12T13:41:32;8.85;;;5.65;;
74269;SDS011;62754;48.252;11.654;2023-09-12T13:43:58;6.38;;;5.75;;
74269;SDS011;62754;48.252;11.654;2023-09-12T13:46:26;6.75;;;6.03;;
74269;SDS011;62754;48.252;11.654;2023-09-12T13:48:56;7.10;;;5.30;;
74269;SDS011;62754;48.252;11.654;2023-09-12T13:51:22;8.60;;;5.63;;
74269;SDS011;62754;48.252;11.654;2023-09-12T13:53:48;6.95;;;5.82;;
74269;SDS011;62754;48.252;11.654;2023-09-12T13:56:14;8.25;;;5.40;;
74269;SDS011;62754;48.252;11.654;2023-09-12T13:58:39;7.97;;;5.53;;
74269;SDS011;62754;48.252;11.654;2023-09-12T14:01:05;6.63;;;5.82;;
74269;SDS011;62754;48.252;11.654;2023-09-12T14:03:33;7.00;;;5.85;;
74269;SDS011;62754;48.252;11.654;2023-09-12T14:06:01;7.07;;;5.68;;
74269;SDS011;62754;48.252;11.654;2023-09-12T14:08:31;6.03;;;5.43;;
74269;SDS011;62754;48.252;11.654;2023-09-12T14:10:57;7.13;;;5.80;;
74269;SDS011;62754;48.252;11.654;2023-09-12T14:13:23;6.97;;;5.65;;
74269;SDS011;62754;48.252;11.654;2023-09-12T14:15:49;13.52;;;5.90;;
74269;SDS011;62754;48.252;11.654;2023-09-12T14:18:19;6.55;;;5.85;;
74269;SDS011;62754;48.252;11.654;2023-09-12T14:20:47;6.63;;;5.50;;
74269;SDS011;62754;48.252;11.654;2023-09-12T14:23:15;9.88;;;5.93;;
74269;SDS011;62754;48.252;11.654;2023-09-12T14:25:43;6.63;;;5.70;;
74269;SDS011;62754;48.252;11.654;2023-09-12T14:28:11;7.22;;;5.63;;
74269;SDS011;62754;48.252;11.654;2023-09-12T14:30:39;7.38;;;5.22;;
74269;SDS011;62754;48.252;11.654;2023-09-12T14:33:05;6.30;;;5.30;;
74269;SDS011;62754;48.252;11.654;2023-09-12T14:35:33;6.63;;;5.45;;
74269;SDS011;62754;48.252;11.654;2023-09-12T14:38:01;7.18;;;5.38;;
74269;SDS011;62754;48.252;11.654;2023-09-12T14:40:29;6.35;;;5.65;;
74269;SDS011;62754;48.252;11.654;2023-09-12T14:42:55;9.27;;;5.72;;
74269;SDS011;62754;48.252;11.654;2023-09-12T14:45:24;7.30;;;5.68;;
74269;SDS011;62754;48.252;11.654;2023-09-12T14:47:52;6.35;;;5.60;;
74269;SDS011;62754;48.252;11.654;2023-09-12T14:50:20;9.25;;;6.15;;
74269;SDS011;62754;48.252;11.654;2023-09-12T14:52:49;8.93;;;5.60;;
74269;SDS011;62754;48.252;11.654;2023-09-12T14:55:15;6.82;;;6.00;;
74269;SDS011;62754;48.252;11.654;2023-09-12T14:57:41;7.03;;;5.85;;
74269;SDS011;62754;48.252;11.654;2023-09-12T15:00:09;7.65;;;5.72;;
74269;SDS011;62754;48.252;11.654;2023-09-12T15:02:37;7.10;;;6.10;;
74269;SDS011;62754;48.252;11.654;2023-09-12T15:05:06;10.35;;;6.00;;
74269;SDS011;62754;48.252;11.654;2023-09-12T15:07:34;7.22;;;5.55;;
74269;SDS011;62754;48.252;11.654;2023-09-12T15:10:02;7.95;;;5.80;;
74269;SDS011;62754;48.252;11.654;2023-09-12T15:12:28;8.00;;;5.50;;